Time;durP1;ratioP1;P1;durP2;ratioP2;P2;SDS_P1;SDS_P2;PMS_P1;PMS_P2;Temp;Humidity;BMP_temperature;BMP_pressure;BME280_temperature;BME280_humidity;BME280_pressure;Samples;Min_cycle;Max_cycle;Signal;HPM_P1;HPM_P2
2021/07/02 00:01:40;;;;;;;5.18;2.45;;;;;;;22.15;63.32;100172.16;4973679;28;20371;-70
2021/07/02 00:04:09;;;;;;;5.13;2.30;;;;;;;22.20;63.18;100174.47;4956996;28;20177;-70
2021/07/02 00:06:35;;;;;;;5.05;2.40;;;;;;;22.07;63.59;100164.28;4973761;28;20402;-70
2021/07/02 00:09:00;;;;;;;4.80;2.25;;;;;;;22.10;63.57;100160.53;4957233;28;20026;-72
2021/07/02 00:11:26;;;;;;;5.93;3.13;;;;;;;22.22;63.40;100168.38;4957232;28;20466;-70
2021/07/02 00:13:51;;;;;;;5.47;2.70;;;;;;;22.14;64.15;100164.91;4957038;28;20066;-70
2021/07/02 00:16:17;;;;;;;4.65;2.20;;;;;;;22.08;64.50;100163.03;4973085;28;20038;-71
2021/07/02 00:18:43;;;;;;;3.22;2.50;;;;;;;22.00;64.90;100158.75;4957240;28;20037;-70
2021/07/02 00:21:09;;;;;;;3.35;2.75;;;;;;;22.01;65.54;100166.03;4956527;28;20077;-70
2021/07/02 00:23:35;;;;;;;4.72;2.80;;;;;;;22.09;65.97;100173.13;4957472;28;20031;-71
2021/07/02 00:26:00;;;;;;;5.47;2.53;;;;;;;22.09;66.28;100182.41;4956920;28;20496;-70
2021/07/02 00:28:26;;;;;;;5.10;2.22;;;;;;;22.27;65.87;100162.19;4957137;28;20027;-70
2021/07/02 00:30:52;;;;;;;5.63;2.63;;;;;;;22.18;66.44;100157.13;4973707;28;20522;-72
2021/07/02 00:33:18;;;;;;;10.80;3.10;;;;;;;22.19;66.47;100170.03;4957100;28;20506;-72
2021/07/02 00:35:43;;;;;;;3.05;2.40;;;;;;;22.11;66.66;100168.66;4956845;28;20034;-70
2021/07/02 00:38:09;;;;;;;5.53;2.38;;;;;;;22.01;66.92;100164.00;4956493;28;20035;-70
2021/07/02 00:40:35;;;;;;;7.10;2.67;;;;;;;21.94;66.74;100161.31;4956794;28;20039;-70
2021/07/02 00:43:01;;;;;;;4.70;2.50;;;;;;;22.01;66.58;100155.50;4956318;28;20093;-70
2021/07/02 00:45:27;;;;;;;5.22;2.80;;;;;;;22.05;66.39;100159.06;4959251;28;20449;-70
2021/07/02 00:47:56;;;;;;;4.75;2.53;;;;;;;22.16;66.08;100170.16;4960421;28;20031;-71
2021/07/02 00:50:21;;;;;;;5.10;2.78;;;;;;;22.21;66.19;100164.75;4960715;28;20035;-71
2021/07/02 00:52:47;;;;;;;4.68;2.72;;;;;;;22.21;65.83;100164.75;4944463;28;20536;-71
2021/07/02 00:55:12;;;;;;;4.15;2.10;;;;;;;22.09;66.20;100156.13;4960056;28;20043;-71
2021/07/02 00:57:38;;;;;;;3.40;2.38;;;;;;;22.04;66.41;100159.47;4960366;28;20027;-71
2021/07/02 01:00:06;;;;;;;5.22;2.08;;;;;;;22.04;66.62;100154.59;4977061;28;20478;-71
2021/07/02 01:02:32;;;;;;;6.03;2.75;;;;;;;22.02;66.88;100144.97;4976528;28;20030;-71
2021/07/02 01:04:58;;;;;;;4.97;2.90;;;;;;;22.05;67.16;100144.88;4959898;28;20397;-71
2021/07/02 01:07:23;;;;;;;7.25;2.70;;;;;;;22.02;67.31;100137.25;4960335;28;20027;-71
2021/07/02 01:09:49;;;;;;;3.92;2.72;;;;;;;21.98;67.36;100140.16;4960011;28;20476;-71
2021/07/02 01:12:15;;;;;;;8.65;3.33;;;;;;;21.92;67.65;100141.94;4960023;28;20030;-71
2021/07/02 01:14:41;;;;;;;5.13;2.83;;;;;;;21.96;67.96;100137.00;4959567;28;20138;-71
2021/07/02 01:17:06;;;;;;;4.05;2.55;;;;;;;21.91;68.26;100140.34;4959619;28;20027;-71
2021/07/02 01:19:32;;;;;;;5.95;2.55;;;;;;;21.91;67.96;100145.22;4959659;28;20062;-71
2021/07/02 01:21:58;;;;;;;2.97;2.40;;;;;;;21.90;67.99;100140.81;4975641;28;20093;-71
2021/07/02 01:24:24;;;;;;;6.25;2.58;;;;;;;22.03;67.32;100141.69;4959460;28;20089;-71
2021/07/02 01:26:51;;;;;;;3.50;2.92;;;;;;;21.99;67.56;100135.31;4959536;28;20117;-71
2021/07/02 01:29:18;;;;;;;6.18;2.92;;;;;;;21.93;67.51;100132.19;4959406;28;20606;-71
2021/07/02 01:31:44;;;;;;;5.72;3.28;;;;;;;22.10;67.15;100123.69;4977049;28;20491;-71
2021/07/02 01:34:09;;;;;;;5.65;2.65;;;;;;;22.05;67.12;100129.91;4959617;28;20034;-71
2021/07/02 01:36:35;;;;;;;3.92;2.53;;;;;;;22.04;67.36;100122.66;4975450;28;20062;-71
2021/07/02 01:39:01;;;;;;;5.38;3.05;;;;;;;22.19;65.65;100132.41;4959845;28;20034;-71
2021/07/02 01:41:27;;;;;;;6.72;2.50;;;;;;;22.07;66.35;100124.59;4959228;28;20382;-71
2021/07/02 01:43:52;;;;;;;3.42;2.78;;;;;;;21.93;66.87;100120.88;4959776;28;20031;-72
2021/07/02 01:46:18;;;;;;;7.15;2.85;;;;;;;21.87;67.17;100116.97;4959188;28;20031;-71
2021/07/02 01:48:43;;;;;;;4.82;2.40;;;;;;;21.80;67.89;100111.50;4958803;28;20089;-72
2021/07/02 01:51:10;;;;;;;5.22;2.85;;;;;;;21.85;68.42;100116.63;4959305;28;20101;-71
2021/07/02 01:53:36;;;;;;;5.32;3.30;;;;;;;21.84;68.94;100123.53;4959007;28;20043;-71
2021/07/02 01:56:01;;;;;;;5.93;2.72;;;;;;;21.85;68.81;100110.97;4958375;28;20027;-72
2021/07/02 01:58:27;;;;;;;4.82;2.75;;;;;;;21.89;68.76;100114.53;4975564;28;20034;-71
2021/07/02 02:00:52;;;;;;;7.53;3.60;;;;;;;21.96;68.44;100114.34;4959094;28;20488;-72
2021/07/02 02:03:18;;;;;;;7.43;4.28;;;;;;;22.09;67.68;100116.44;4958739;28;20039;-72
2021/07/02 02:05:44;;;;;;;9.07;3.03;;;;;;;22.07;67.35;100118.94;4974860;28;20023;-72
2021/07/02 02:08:09;;;;;;;5.93;2.83;;;;;;;21.94;67.93;100116.00;4959173;28;20118;-71
2021/07/02 02:10:35;;;;;;;4.78;2.42;;;;;;;21.94;67.71;100127.34;4958944;28;20030;-72
2021/07/02 02:13:01;;;;;;;2.63;2.28;;;;;;;21.93;67.60;100109.53;4976279;28;20370;-71
2021/07/02 02:15:26;;;;;;;4.68;3.05;;;;;;;22.01;67.41;100115.06;4958827;28;20034;-71
2021/07/02 02:17:53;;;;;;;5.32;2.40;;;;;;;22.01;67.53;100112.22;4942752;28;20085;-71
2021/07/02 02:20:19;;;;;;;4.30;2.28;;;;;;;21.91;67.74;100117.69;4958170;28;20078;-71
2021/07/02 02:22:44;;;;;;;3.92;2.28;;;;;;;22.00;67.29;100113.44;4975895;28;20062;-71
2021/07/02 02:25:10;;;;;;;5.28;2.28;;;;;;;22.10;66.74;100106.69;4974757;28;20042;-71
2021/07/02 02:27:37;;;;;;;3.05;1.88;;;;;;;21.98;67.01;100105.38;4975622;28;20061;-71
2021/07/02 02:30:07;;;;;;;4.32;2.03;;;;;;;22.00;67.07;100093.59;4975424;28;20426;-72
2021/07/02 02:32:34;;;;;;;6.20;2.05;;;;;;;21.87;67.33;100091.50;4975934;28;20039;-70
2021/07/02 02:35:00;;;;;;;6.40;2.80;;;;;;;21.73;68.02;100100.31;4958469;28;20101;-71
2021/07/02 02:37:25;;;;;;;4.07;2.45;;;;;;;21.81;68.09;100090.44;4974881;28;20038;-72
2021/07/02 02:39:51;;;;;;;8.40;2.63;;;;;;;21.60;69.01;100091.75;4958415;28;20034;-72
2021/07/02 02:42:17;;;;;;;8.80;2.60;;;;;;;21.60;69.18;100093.78;4958401;28;20470;-71
2021/07/02 02:44:42;;;;;;;7.18;2.75;;;;;;;21.62;69.28;100089.25;4958422;28;20382;-71
2021/07/02 02:47:09;;;;;;;7.63;5.22;;;;;;;21.81;68.50;100089.63;4957719;28;20379;-71
2021/07/02 02:49:34;;;;;;;8.77;4.60;;;;;;;21.73;68.40;100088.22;4958238;28;20088;-71
2021/07/02 02:52:00;;;;;;;6.85;3.50;;;;;;;21.72;68.05;100084.59;4957964;28;20133;-70
2021/07/02 02:54:25;;;;;;;4.82;2.65;;;;;;;21.85;68.43;100090.34;4958125;28;20038;-70
2021/07/02 02:57:09;;;;;;;6.75;2.50;;;;;;;21.75;68.68;100092.22;4957853;28;20062;-71
2021/07/02 02:59:38;;;;;;;5.10;2.65;;;;;;;21.82;68.09;100091.22;4957828;28;20089;-71
2021/07/02 03:02:05;;;;;;;7.47;3.17;;;;;;;21.70;68.22;100090.69;4958321;28;20035;-70
2021/07/02 03:04:34;;;;;;;4.30;2.80;;;;;;;21.60;69.02;100093.78;4957861;28;20190;-70
2021/07/02 03:07:00;;;;;;;2.88;2.13;;;;;;;21.61;69.13;100082.00;4957524;28;20093;-70
2021/07/02 03:09:25;;;;;;;6.85;2.40;;;;;;;21.51;69.38;100070.94;4957010;28;20512;-70
2021/07/02 03:11:51;;;;;;;7.15;2.95;;;;;;;21.65;69.46;100082.72;4957387;28;20019;-70
2021/07/02 03:14:20;;;;;;;3.83;2.80;;;;;;;21.71;69.22;100074.50;4957898;28;20041;-70
2021/07/02 03:16:47;;;;;;;4.80;2.58;;;;;;;21.81;68.84;100079.09;4958408;28;20103;-70
2021/07/02 03:19:13;;;;;;;6.22;3.08;;;;;;;21.75;68.84;100086.53;4957400;28;20097;-70
2021/07/02 03:21:39;;;;;;;6.05;3.83;;;;;;;21.69;69.06;100080.59;4973948;28;20090;-70
2021/07/02 03:24:06;;;;;;;4.40;2.35;;;;;;;21.70;68.72;100085.03;4957221;28;20031;-70
2021/07/02 03:26:32;;;;;;;6.50;3.05;;;;;;;21.82;68.52;100086.34;4973327;28;20180;-70
2021/07/02 03:28:57;;;;;;;6.13;2.60;;;;;;;21.75;69.15;100085.75;4957114;28;20113;-70
2021/07/02 03:31:23;;;;;;;9.55;6.22;;;;;;;21.79;68.92;100094.97;4957251;28;20026;-70
2021/07/02 03:33:48;;;;;;;10.90;4.30;;;;;;;21.87;67.92;100088.66;4974590;28;20027;-70
2021/07/02 03:36:14;;;;;;;8.50;4.50;;;;;;;22.00;67.13;100090.78;4957084;28;20030;-70
2021/07/02 03:38:40;;;;;;;5.93;2.28;;;;;;;21.79;68.51;100098.59;4973105;28;20037;-70
2021/07/02 03:41:06;;;;;;;8.40;2.15;;;;;;;21.83;68.61;100104.13;4973230;28;20031;-70
2021/07/02 03:43:31;;;;;;;4.45;2.30;;;;;;;21.80;68.93;100105.84;4957610;28;20080;-70
2021/07/02 03:45:57;;;;;;;4.53;2.55;;;;;;;21.68;68.81;100100.88;4973039;28;20122;-70
2021/07/02 03:48:22;;;;;;;4.75;3.28;;;;;;;21.72;68.72;100081.75;4957415;28;20066;-70
2021/07/02 03:50:48;;;;;;;9.10;3.03;;;;;;;21.85;67.94;100090.34;4974283;28;20034;-71
2021/07/02 03:53:13;;;;;;;3.13;2.05;;;;;;;21.82;67.97;100096.88;4957255;28;20470;-71
2021/07/02 03:55:39;;;;;;;4.95;3.35;;;;;;;22.02;67.50;100103.28;4957239;28;20034;-71
2021/07/02 03:58:04;;;;;;;5.78;3.28;;;;;;;21.98;67.49;100092.00;4957317;28;20038;-71
2021/07/02 04:00:31;;;;;;;6.35;4.03;;;;;;;22.05;67.38;100096.72;4957135;28;20039;-71
2021/07/02 04:02:56;;;;;;;5.72;3.75;;;;;;;22.19;66.71;100104.06;4974488;28;20053;-71
2021/07/02 04:05:22;;;;;;;20.02;14.93;;;;;;;22.30;66.84;100113.09;4957112;28;20474;-71
2021/07/02 04:07:48;;;;;;;16.15;12.25;;;;;;;22.84;64.99;100098.25;4957028;28;20034;-71
2021/07/02 04:10:13;;;;;;;11.07;9.43;;;;;;;23.18;63.62;100106.19;4957529;28;20046;-71
2021/07/02 04:12:39;;;;;;;10.07;7.40;;;;;;;23.16;63.65;100113.56;4956948;28;20121;-71
2021/07/02 04:15:07;;;;;;;15.57;4.93;;;;;;;23.67;61.61;100107.97;4973102;28;20045;-71
2021/07/02 04:17:35;;;;;;;7.25;2.90;;;;;;;23.97;61.09;100110.22;4975170;28;20054;-71
2021/07/02 04:20:01;;;;;;;5.05;2.80;;;;;;;24.55;59.12;100115.56;4976244;28;20055;-71
2021/07/02 04:22:27;;;;;;;7.32;2.95;;;;;;;25.09;57.34;100116.47;4961065;28;20037;-71
2021/07/02 04:24:52;;;;;;;5.75;2.17;;;;;;;25.54;55.98;100110.22;4960171;28;20030;-71
2021/07/02 04:27:18;;;;;;;9.27;3.08;;;;;;;25.96;54.53;100109.00;4976848;28;20042;-71
2021/07/02 04:29:44;;;;;;;7.22;3.13;;;;;;;26.31;52.89;100115.22;4976790;28;20466;-70
2021/07/02 04:32:10;;;;;;;7.22;2.58;;;;;;;26.67;52.22;100125.91;4976566;28;20102;-70
2021/07/02 04:34:35;;;;;;;3.20;1.75;;;;;;;27.05;51.39;100114.00;4960434;28;20046;-70
2021/07/02 04:37:01;;;;;;;4.15;2.25;;;;;;;27.38;49.59;100116.19;4960594;28;20038;-71
2021/07/02 04:39:26;;;;;;;5.18;2.25;;;;;;;26.90;51.18;100118.78;4960229;28;20453;-71
2021/07/02 04:41:52;;;;;;;6.03;2.17;;;;;;;27.37;50.20;100114.59;4976355;28;20023;-71
2021/07/02 04:44:18;;;;;;;8.18;2.60;;;;;;;27.32;49.73;100115.22;4976706;28;20130;-71
2021/07/02 04:46:43;;;;;;;6.07;2.00;;;;;;;27.26;50.65;100114.28;4944473;28;20141;-71
2021/07/02 04:49:10;;;;;;;4.88;2.10;;;;;;;27.68;49.76;100106.53;4960322;28;20030;-71
2021/07/02 04:51:35;;;;;;;4.53;2.55;;;;;;;27.54;49.60;100107.25;4960047;28;20038;-71
2021/07/02 04:54:01;;;;;;;6.88;2.33;;;;;;;27.39;49.38;100118.56;4959982;28;20035;-72
2021/07/02 04:56:26;;;;;;;9.50;2.53;;;;;;;27.26;49.81;100120.00;4960137;28;20034;-70
2021/07/02 04:58:55;;;;;;;5.13;2.92;;;;;;;27.87;49.17;100120.78;4960142;28;20093;-70
2021/07/02 05:01:26;;;;;;;3.45;2.00;;;;;;;28.10;47.75;100119.22;4960033;28;20438;-71
2021/07/02 05:03:52;;;;;;;5.45;2.30;;;;;;;27.58;48.59;100119.28;4960374;28;20378;-71
2021/07/02 05:06:18;;;;;;;4.60;2.25;;;;;;;27.75;48.89;100107.47;4960042;28;20038;-70
2021/07/02 05:08:44;;;;;;;6.72;2.58;;;;;;;27.66;49.12;100120.53;4959977;28;20046;-69
2021/07/02 05:11:10;;;;;;;4.95;2.60;;;;;;;27.53;49.33;100111.34;4975831;28;20062;-71
2021/07/02 05:13:40;;;;;;;6.35;2.80;;;;;;;27.72;48.95;100106.41;4960145;28;20054;-71
2021/07/02 05:16:07;;;;;;;4.30;2.80;;;;;;;27.99;48.44;100113.25;4959775;28;20034;-71
2021/07/02 05:18:33;;;;;;;9.70;3.50;;;;;;;27.53;49.86;100111.34;4960029;28;20429;-72
2021/07/02 05:20:58;;;;;;;8.68;3.05;;;;;;;27.82;48.89;100121.44;4959077;28;20054;-71
2021/07/02 05:23:24;;;;;;;5.20;3.38;;;;;;;27.44;50.22;100117.13;4959445;28;20058;-69
2021/07/02 05:25:51;;;;;;;10.50;3.33;;;;;;;26.81;52.07;100121.66;4959649;28;20035;-69
2021/07/02 05:28:18;;;;;;;7.10;3.90;;;;;;;27.15;51.83;100121.31;4976516;28;20027;-68
2021/07/02 05:30:44;;;;;;;7.32;4.03;;;;;;;26.93;52.34;100123.53;4958589;28;20042;-68
2021/07/02 05:33:09;;;;;;;10.10;4.20;;;;;;;26.81;52.27;100121.66;4975406;28;20097;-68
2021/07/02 05:35:35;;;;;;;12.63;6.03;;;;;;;27.21;51.92;100117.81;4975469;28;20070;-69
2021/07/02 05:38:00;;;;;;;11.13;7.00;;;;;;;26.81;52.60;100127.34;4959071;28;20030;-69
2021/07/02 05:40:26;;;;;;;15.48;6.80;;;;;;;27.22;51.95;100130.81;4959106;28;20086;-68
2021/07/02 05:42:51;;;;;;;22.00;10.77;;;;;;;27.09;52.65;100123.22;4959469;28;20031;-69
2021/07/02 05:45:17;;;;;;;12.63;7.00;;;;;;;27.41;51.84;100127.44;4959519;28;20434;-70
2021/07/02 05:47:49;;;;;;;9.65;4.25;;;;;;;26.72;53.42;100118.78;4959089;28;20030;-69
2021/07/02 05:50:16;;;;;;;12.23;3.72;;;;;;;26.81;52.89;100135.91;4943860;28;20097;-69
2021/07/02 05:52:42;;;;;;;9.25;4.07;;;;;;;26.60;54.12;100121.31;4974774;28;20038;-69
2021/07/02 05:55:08;;;;;;;8.52;3.75;;;;;;;27.11;52.35;100114.97;4974876;28;20034;-69
2021/07/02 05:57:33;;;;;;;4.30;3.13;;;;;;;27.46;50.72;100116.63;4958747;28;20030;-69
2021/07/02 05:59:59;;;;;;;6.18;3.38;;;;;;;27.66;50.00;100123.38;4959127;28;20065;-68
2021/07/02 06:02:24;;;;;;;9.00;3.80;;;;;;;28.07;49.29;100123.84;4976323;28;20038;-68
2021/07/02 06:04:50;;;;;;;8.05;3.55;;;;;;;28.78;47.11;100127.19;4958933;28;20031;-69
2021/07/02 06:07:18;;;;;;;4.78;3.40;;;;;;;29.03;46.31;100135.28;4958525;28;20053;-69
2021/07/02 06:09:43;;;;;;;8.77;4.00;;;;;;;28.75;46.95;100136.75;4975899;28;20035;-70
2021/07/02 06:12:09;;;;;;;7.63;3.20;;;;;;;29.05;46.92;100129.03;4958572;28;20095;-70
2021/07/02 06:14:35;;;;;;;6.32;3.70;;;;;;;29.70;46.04;100136.47;4958639;28;20043;-69
2021/07/02 06:17:00;;;;;;;5.07;3.17;;;;;;;30.55;43.50;100129.88;4975556;28;20446;-69
2021/07/02 06:19:26;;;;;;;4.82;3.15;;;;;;;30.18;44.61;100139.03;4958137;28;20137;-70
2021/07/02 06:21:51;;;;;;;5.00;3.10;;;;;;;30.35;43.79;100144.22;4958380;28;20117;-70
2021/07/02 06:24:17;;;;;;;4.75;2.72;;;;;;;30.31;44.78;100143.63;4959013;28;20038;-70
2021/07/02 06:26:42;;;;;;;7.00;3.28;;;;;;;31.27;42.77;100147.19;4958700;28;20019;-69
2021/07/02 06:29:08;;;;;;;5.20;3.58;;;;;;;30.46;44.47;100136.53;4975522;28;20367;-69
2021/07/02 06:31:33;;;;;;;4.75;3.28;;;;;;;31.70;41.96;100138.69;4958265;28;20026;-70
2021/07/02 06:33:59;;;;;;;6.97;3.30;;;;;;;31.90;41.28;100142.78;4974380;28;20041;-70
2021/07/02 06:36:25;;;;;;;5.78;2.85;;;;;;;32.15;40.95;100141.91;4958191;28;20450;-69
2021/07/02 06:38:51;;;;;;;5.18;2.78;;;;;;;31.81;41.56;100141.69;4957661;28;20035;-70
2021/07/02 06:41:16;;;;;;;9.27;3.13;;;;;;;30.43;44.24;100145.38;4958271;28;20062;-69
2021/07/02 06:43:42;;;;;;;6.25;2.35;;;;;;;29.62;46.89;100161.09;4973832;28;20393;-68
2021/07/02 06:46:07;;;;;;;5.38;3.03;;;;;;;29.05;48.67;100147.03;4957974;28;20089;-69
2021/07/02 06:48:33;;;;;;;3.22;2.10;;;;;;;28.57;49.63;100152.78;4973750;28;20030;-68
2021/07/02 06:50:59;;;;;;;3.67;2.15;;;;;;;28.03;51.04;100148.19;4957758;28;20031;-69
2021/07/02 06:53:25;;;;;;;4.70;2.58;;;;;;;27.98;52.05;100141.06;4973768;28;20037;-68
2021/07/02 06:55:52;;;;;;;5.13;2.40;;;;;;;27.40;53.46;100122.19;4958409;28;20204;-70
2021/07/02 06:58:19;;;;;;;3.60;1.92;;;;;;;28.52;50.26;100129.78;4974991;28;20106;-69
2021/07/02 07:00:44;;;;;;;11.48;1.85;;;;;;;28.79;49.93;100137.34;4973484;28;20386;-70
2021/07/02 07:03:10;;;;;;;5.45;1.73;;;;;;;29.07;48.73;100147.31;4957594;28;20030;-70
2021/07/02 07:05:37;;;;;;;7.32;2.03;;;;;;;28.94;48.72;100147.59;4973932;28;20065;-70
2021/07/02 07:08:04;;;;;;;3.28;1.60;;;;;;;29.95;46.31;100145.72;4957493;28;20031;-70
2021/07/02 07:10:31;;;;;;;3.65;1.58;;;;;;;29.50;47.05;100142.88;4957464;28;20114;-70
2021/07/02 07:12:58;;;;;;;3.38;2.05;;;;;;;28.93;48.71;100156.66;4975001;28;20049;-70
2021/07/02 07:15:26;;;;;;;5.55;1.80;;;;;;;28.61;49.07;100144.03;4957258;28;20023;-70
2021/07/02 07:17:53;;;;;;;5.78;1.85;;;;;;;28.13;50.13;100146.88;4957330;28;20026;-68
2021/07/02 07:20:19;;;;;;;3.55;1.90;;;;;;;28.11;50.36;100135.88;4957293;28;20058;-70
2021/07/02 07:22:46;;;;;;;2.13;1.60;;;;;;;28.68;48.24;100146.50;4957340;28;20125;-69
2021/07/02 07:25:12;;;;;;;3.08;1.58;;;;;;;28.19;49.24;100145.72;4974567;28;20042;-70
2021/07/02 07:27:38;;;;;;;5.40;1.58;;;;;;;28.89;47.22;100148.25;4974754;28;20102;-70
2021/07/02 07:30:05;;;;;;;3.15;1.83;;;;;;;28.56;49.00;100133.25;4957507;28;20168;-71
2021/07/02 07:32:32;;;;;;;7.90;2.42;;;;;;;28.66;49.22;100138.41;4957454;28;20066;-72
2021/07/02 07:35:03;;;;;;;9.63;2.38;;;;;;;28.71;49.27;100134.88;4956873;28;20092;-72
2021/07/02 07:37:32;;;;;;;6.88;2.20;;;;;;;28.78;48.79;100133.72;4974831;28;20018;-71
2021/07/02 07:39:58;;;;;;;3.47;1.92;;;;;;;29.33;47.80;100138.94;4974282;28;20031;-70
2021/07/02 07:42:23;;;;;;;2.45;1.48;;;;;;;29.58;46.50;100125.31;4957304;28;20034;-72
2021/07/02 07:44:49;;;;;;;4.15;1.95;;;;;;;29.84;46.41;100134.06;4956959;28;20482;-70
2021/07/02 07:47:18;;;;;;;1.88;1.40;;;;;;;30.48;44.24;100138.94;4957535;28;20042;-70
2021/07/02 07:49:45;;;;;;;2.35;1.45;;;;;;;30.92;43.53;100144.44;4957534;28;20034;-70
2021/07/02 07:52:17;;;;;;;5.80;2.10;;;;;;;31.15;42.87;100142.59;4957407;28;20466;-72
2021/07/02 07:54:43;;;;;;;;;;;;;;;31.85;40.82;100132.00;4959117;28;20037;-71
2021/07/02 07:57:08;;;;;;;2.45;1.80;;;;;;;32.31;40.56;100146.97;4978350;28;19997;-71
2021/07/02 07:59:37;;;;;;;3.08;1.73;;;;;;;32.89;39.08;100146.75;4961148;28;20125;-71
2021/07/02 08:02:03;;;;;;;3.20;1.63;;;;;;;33.34;37.96;100150.50;4977242;28;20135;-71
2021/07/02 08:04:28;;;;;;;3.40;1.92;;;;;;;32.86;38.59;100153.50;4976857;28;20477;-71
2021/07/02 08:06:54;;;;;;;7.13;2.30;;;;;;;32.95;38.55;100158.28;4961095;28;20031;-70
2021/07/02 08:09:20;;;;;;;4.10;2.40;;;;;;;32.28;38.77;100147.19;4977927;28;20033;-71
2021/07/02 08:11:46;;;;;;;5.43;1.38;;;;;;;30.74;43.69;100156.25;4978047;28;20042;-70
2021/07/02 08:14:15;;;;;;;5.35;1.92;;;;;;;29.80;45.48;100142.88;4960897;28;20035;-71
2021/07/02 08:16:41;;;;;;;3.17;1.50;;;;;;;29.56;45.97;100156.53;4945623;28;20065;-70
2021/07/02 08:19:07;;;;;;;6.18;1.40;;;;;;;29.52;46.81;100147.34;4976890;28;20417;-72
2021/07/02 08:21:38;;;;;;;4.68;1.27;;;;;;;30.41;45.37;100147.94;4977845;28;20050;-72
2021/07/02 08:24:04;;;;;;;4.80;1.77;;;;;;;31.11;43.75;100150.66;4960384;28;20038;-72
2021/07/02 08:26:30;;;;;;;3.13;1.95;;;;;;;31.13;43.49;100141.53;4960398;28;20037;-73
2021/07/02 08:31:40;;;;;;;1.95;1.17;;;;;;;29.19;47.29;100140.53;4977878;28;20113;-72
2021/07/02 08:34:05;;;;;;;2.85;1.50;;;;;;;29.45;47.38;100129.22;4960412;28;20094;-72
2021/07/02 08:36:31;;;;;;;4.30;1.48;;;;;;;30.22;45.45;100156.06;4960154;28;20023;-71
2021/07/02 08:38:59;;;;;;;4.10;1.60;;;;;;;30.96;44.17;100145.03;4960610;28;20030;-71
2021/07/02 08:41:24;;;;;;;4.35;1.60;;;;;;;30.75;42.75;100152.88;4977390;28;20062;-72
2021/07/02 08:43:50;;;;;;;1.50;1.40;;;;;;;31.53;41.13;100140.63;4960537;28;20082;-72
2021/07/02 08:46:19;;;;;;;4.00;1.88;;;;;;;31.85;40.24;100155.03;4977267;28;20525;-71
2021/07/02 08:48:47;;;;;;;6.22;1.70;;;;;;;32.97;38.69;100147.81;4975971;28;20035;-72
2021/07/02 08:51:13;;;;;;;2.70;1.20;;;;;;;33.21;38.67;100153.09;4959806;28;20038;-72
2021/07/02 08:53:39;;;;;;;1.17;1.08;;;;;;;33.55;36.65;100148.19;4977623;28;20039;-72
2021/07/02 08:56:06;;;;;;;1.75;1.27;;;;;;;33.70;35.36;100150.81;4960104;28;20033;-72
2021/07/02 08:58:33;;;;;;;2.22;1.10;;;;;;;33.14;36.12;100141.31;4977214;28;20117;-72
2021/07/02 09:00:59;;;;;;;1.60;1.13;;;;;;;34.50;34.30;100149.41;4975755;28;20023;-72
2021/07/02 09:03:30;;;;;;;1.67;1.48;;;;;;;34.14;36.26;100137.66;4975975;28;20034;-73
2021/07/02 09:06:19;;;;;;;7.43;1.58;;;;;;;34.02;36.31;100150.53;4975581;28;20062;-72
2021/07/02 09:09:04;;;;;;;3.30;1.95;;;;;;;34.70;32.96;100151.16;4977251;28;20058;-71
2021/07/02 09:11:32;;;;;;;5.28;1.50;;;;;;;34.35;35.41;100156.22;4959787;28;20030;-73
2021/07/02 09:13:58;;;;;;;1.75;1.55;;;;;;;34.52;35.32;100162.00;4960024;28;20034;-71
2021/07/02 09:16:36;;;;;;;5.18;1.30;;;;;;;34.36;35.88;100154.94;4959666;28;20030;-72
2021/07/02 09:19:27;;;;;;;4.53;1.40;;;;;;;34.35;36.50;100147.56;4977167;28;20426;-71
2021/07/02 09:22:11;;;;;;;2.47;1.52;;;;;;;34.55;34.89;100163.81;4959180;28;20031;-71
2021/07/02 09:24:40;;;;;;;5.25;1.70;;;;;;;34.79;34.80;100145.09;4959805;28;20402;-70
2021/07/02 09:27:29;;;;;;;4.22;1.67;;;;;;;34.80;36.00;100144.53;4976209;28;20041;-72
2021/07/02 09:30:19;;;;;;;4.88;1.75;;;;;;;35.28;34.63;100137.44;4975324;28;20039;-72
2021/07/02 09:32:49;;;;;;;3.30;1.65;;;;;;;34.10;36.80;100151.59;4959172;28;20023;-72
2021/07/02 09:35:17;;;;;;;1.77;1.40;;;;;;;33.10;37.86;100141.56;4959250;28;20137;-71
2021/07/02 09:37:50;;;;;;;2.63;1.55;;;;;;;32.85;38.56;100138.31;4976591;28;20371;-72
2021/07/02 09:40:21;;;;;;;4.80;1.70;;;;;;;33.00;39.32;100129.47;4975577;28;20023;-72
2021/07/02 09:43:09;;;;;;;3.55;1.73;;;;;;;33.18;39.63;100136.06;4959323;28;20489;-72
2021/07/02 09:45:50;;;;;;;3.28;1.70;;;;;;;32.63;40.27;100132.47;4976655;28;20502;-72
2021/07/02 09:48:20;;;;;;;4.05;1.30;;;;;;;32.66;39.42;100130.69;4975214;28;20031;-72
2021/07/02 09:50:53;;;;;;;5.45;1.40;;;;;;;33.08;37.21;100132.66;4976853;28;20050;-72
2021/07/02 09:53:28;;;;;;;7.88;2.30;;;;;;;33.82;36.82;100148.69;4958986;28;20085;-72
2021/07/02 09:55:55;;;;;;;2.20;1.67;;;;;;;33.30;36.63;100126.91;4958638;28;20041;-71
2021/07/02 09:58:28;;;;;;;4.57;1.67;;;;;;;33.15;39.17;100137.91;4974926;28;20027;-71
2021/07/02 10:00:55;;;;;;;6.85;1.30;;;;;;;32.49;41.10;100127.69;4975036;28;20096;-72
2021/07/02 10:03:33;;;;;;;2.72;2.03;;;;;;;32.88;39.97;100129.97;4958747;28;20084;-72
2021/07/02 10:06:01;;;;;;;2.13;1.33;;;;;;;31.62;42.46;100131.81;4976666;28;20031;-71
2021/07/02 10:08:29;;;;;;;4.57;1.65;;;;;;;32.01;41.58;100125.59;4976063;28;20018;-71
2021/07/02 10:10:57;;;;;;;4.32;1.42;;;;;;;32.41;40.24;100124.53;4975928;28;20058;-71
2021/07/02 10:13:26;;;;;;;2.05;1.25;;;;;;;32.16;41.86;100122.53;4958604;28;20478;-71
2021/07/02 10:15:53;;;;;;;8.70;1.63;;;;;;;31.32;43.35;100124.75;4976094;28;20089;-71
2021/07/02 10:18:20;;;;;;;4.43;1.40;;;;;;;31.17;43.33;100130.59;4958549;28;20030;-71
2021/07/02 10:20:49;;;;;;;1.85;1.08;;;;;;;31.41;43.07;100128.25;4974590;28;20055;-71
2021/07/02 10:23:27;;;;;;;5.55;1.30;;;;;;;31.21;44.08;100126.19;4958431;28;20034;-72
2021/07/02 10:25:55;;;;;;;2.63;1.20;;;;;;;31.40;44.11;100128.75;4975767;28;20038;-72
2021/07/02 10:28:22;;;;;;;2.90;1.35;;;;;;;31.35;44.12;100123.75;4974310;28;20033;-72
2021/07/02 10:30:48;;;;;;;2.85;1.60;;;;;;;31.59;44.13;100121.34;4975524;28;20359;-71
2021/07/02 10:33:15;;;;;;;1.60;1.38;;;;;;;31.89;42.09;100129.69;4974831;28;20030;-71
2021/07/02 10:35:44;;;;;;;2.60;1.48;;;;;;;32.12;40.88;100111.28;4958901;28;20109;-72
2021/07/02 10:38:11;;;;;;;3.03;1.33;;;;;;;32.18;41.00;100109.22;4975806;28;20035;-72
2021/07/02 10:40:42;;;;;;;4.95;1.65;;;;;;;32.11;42.51;100129.03;4957747;28;20034;-71
2021/07/02 10:43:09;;;;;;;3.97;1.60;;;;;;;32.10;41.34;100118.84;4958140;28;20386;-71
2021/07/02 10:45:36;;;;;;;2.92;1.55;;;;;;;32.33;41.09;100132.84;4957917;28;20042;-72
2021/07/02 10:48:02;;;;;;;2.22;1.02;;;;;;;32.64;40.03;100145.56;4958072;28;20382;-72
2021/07/02 10:50:44;;;;;;;4.68;1.55;;;;;;;32.93;38.99;100143.63;4975309;28;20434;-71
2021/07/02 10:53:30;;;;;;;5.05;1.80;;;;;;;33.01;39.38;100128.16;4974987;28;20073;-71
2021/07/02 10:56:18;;;;;;;4.22;1.50;;;;;;;32.94;38.82;100133.66;4975291;28;20034;-70
2021/07/02 10:58:52;;;;;;;3.15;1.40;;;;;;;33.46;37.79;100133.25;4956715;28;20033;-71
2021/07/02 11:01:17;;;;;;;4.00;1.35;;;;;;;33.43;38.86;100134.28;4975190;28;20037;-71
2021/07/02 11:03:48;;;;;;;3.47;1.20;;;;;;;32.09;41.29;100129.56;4958454;28;20026;-71
2021/07/02 11:06:32;;;;;;;4.38;1.40;;;;;;;32.35;40.86;100129.47;4958141;28;20057;-71
2021/07/02 11:08:59;;;;;;;5.85;1.52;;;;;;;32.85;40.23;100117.38;4973674;28;20031;-71
2021/07/02 11:11:24;;;;;;;3.33;1.50;;;;;;;33.01;40.68;100116.63;4957920;28;20066;-71
2021/07/02 11:14:09;;;;;;;7.65;1.45;;;;;;;33.10;38.70;100112.75;4957736;28;20065;-71
2021/07/02 11:17:13;;;;;;;2.22;1.10;;;;;;;33.17;38.84;100117.19;4957982;28;20114;-71
2021/07/02 11:19:38;;;;;;;2.13;1.38;;;;;;;32.62;41.05;100113.63;4972841;28;20134;-71
2021/07/02 11:22:24;;;;;;;1.33;1.23;;;;;;;31.48;43.47;100119.19;4958094;28;20073;-71
2021/07/02 11:25:14;;;;;;;2.83;1.33;;;;;;;31.70;42.36;100109.94;4957689;28;20435;-71
2021/07/02 11:27:51;;;;;;;4.13;1.50;;;;;;;32.08;41.77;100110.72;4974651;28;20027;-71
2021/07/02 11:30:34;;;;;;;3.83;1.70;;;;;;;32.21;41.51;100096.66;4972487;28;20037;-71